Time;durP1;ratioP1;P1;durP2;ratioP2;P2;SDS_P1;SDS_P2;PMS_P1;PMS_P2;Temp;Humidity;BMP_temperature;BMP_pressure;BME280_temperature;BME280_humidity;BME280_pressure;Samples;Min_cycle;Max_cycle;Signal;HPM_P1;HPM_P2
2024/03/09 00:00:26;;;;;;;;;;;5.40;99.90;;;;;;4952784;28;19924;-80
2024/03/09 00:03:03;;;;;;;;;;;5.40;99.90;;;;;;4997914;28;20343;-80
2024/03/09 00:05:36;;;;;;;;;;;5.30;99.90;;;;;;4963470;28;19977;-80
2024/03/09 00:08:03;;;;;;;;;;;5.30;99.90;;;;;;4964821;28;19922;-80
2024/03/09 00:10:31;;;;;;;;;;;5.30;99.90;;;;;;4959409;28;19979;-79
2024/03/09 00:12:57;;;;;;;;;;;5.30;99.90;;;;;;4965179;28;20510;-80
2024/03/09 00:15:23;;;;;;;;;;;5.30;99.90;;;;;;4951280;28;19922;-79
2024/03/09 00:17:55;;;;;;;;;;;5.30;99.90;;;;;;4979515;28;19995;-79
2024/03/09 00:20:36;;;;;;;;;;;;;;;;;;;;;
2024/03/09 00:23:52;;;;;;;;;;;5.30;99.90;;;;;;4985223;28;20056;-80
2024/03/09 00:26:19;;;;;;;;;;;5.30;99.90;;;;;;4967725;28;20346;-80
2024/03/09 00:28:48;;;;;;;;;;;5.20;99.90;;;;;;4949179;28;19914;-79
2024/03/09 00:31:18;;;;;;;;;;;5.20;99.90;;;;;;4980528;28;19968;-80
2024/03/09 00:33:49;;;;;;;;;;;5.20;99.90;;;;;;4967289;28;19924;-81
2024/03/09 00:36:21;;;;;;;;;;;5.10;99.90;;;;;;4949204;28;19918;-80
2024/03/09 00:49:30;;;;;;;;;;;5.10;99.90;;;;;;5472375;22;17981972;-81
2024/03/09 00:52:25;;;;;;;;;;;5.00;99.90;;;;;;6204311;23;20264;-80
2024/03/09 00:54:53;;;;;;;;;;;5.00;99.90;;;;;;6225387;23;19923;-80
2024/03/09 00:57:22;;;;;;;;;;;4.80;99.90;;;;;;6203244;23;19950;-80
2024/03/09 01:00:44;;;;;;;;;;;5.00;99.90;;;;;;6199784;23;19922;-80
2024/03/09 01:03:29;;;;;;;;;;;5.00;99.90;;;;;;6231479;23;19938;-81
2024/03/09 01:06:05;;;;;;;;;;;4.80;99.90;;;;;;6208316;23;19916;-81
2024/03/09 01:08:34;;;;;;;;;;;4.90;99.90;;;;;;6206905;23;19908;-81
2024/03/09 01:11:05;;;;;;;;;;;4.80;99.90;;;;;;6211797;23;20289;-81
2024/03/09 01:13:43;;;;;;;;;;;4.80;99.90;;;;;;6234605;23;20276;-81
2024/03/09 01:16:09;;;;;;;;;;;4.90;99.90;;;;;;6184293;23;19915;-81
2024/03/09 01:18:39;;;;;;;;;;;4.80;99.90;;;;;;6211481;23;19923;-81
2024/03/09 01:21:10;;;;;;;;;;;4.80;99.90;;;;;;6210544;23;19938;-81
2024/03/09 01:23:38;;;;;;;;;;;4.80;99.90;;;;;;6206140;23;20612;-81
2024/03/09 01:26:11;;;;;;;;;;;4.70;99.90;;;;;;6226473;23;20332;-81
2024/03/09 01:28:37;;;;;;;;;;;4.80;99.90;;;;;;6226395;23;19936;-80
2024/03/09 01:31:10;;;;;;;;;;;4.70;99.90;;;;;;6201490;23;19908;-80
2024/03/09 01:33:46;;;;;;;;;;;4.70;99.90;;;;;;6180774;23;19915;-80
2024/03/09 01:36:27;;;;;;;;;;;4.60;99.90;;;;;;6202726;23;19912;-81
2024/03/09 01:39:15;;;;;;;;;;;4.60;99.90;;;;;;6177864;23;19915;-80
2024/03/09 01:42:09;;;;;;;;;;;4.50;99.90;;;;;;6227339;23;19919;-80
2024/03/09 01:44:37;;;;;;;;;;;4.50;99.90;;;;;;6202662;23;19923;-81
2024/03/09 01:47:11;;;;;;;;;;;4.50;99.90;;;;;;6203240;23;19912;-81
2024/03/09 01:50:00;;;;;;;;;;;4.50;99.90;;;;;;6179470;23;19912;-80
2024/03/09 01:52:31;;;;;;;;;;;4.50;99.90;;;;;;6139890;23;19916;-80
2024/03/09 01:55:08;;;;;;;;;;;4.50;99.90;;;;;;6117147;23;19912;-82
2024/03/09 01:57:47;;;;;;;;;;;4.50;99.90;;;;;;6118913;23;19932;-82
2024/03/09 02:00:17;;;;;;;;;;;4.50;99.90;;;;;;6115799;23;19912;-81
2024/03/09 02:02:56;;;;;;;;;;;4.60;99.90;;;;;;6142937;23;19912;-81
2024/03/09 02:05:24;;;;;;;;;;;4.50;99.90;;;;;;6191631;23;19908;-82
2024/03/09 02:08:02;;;;;;;;;;;4.50;99.90;;;;;;6121237;23;19966;-82
2024/03/09 02:10:44;;;;;;;;;;;4.50;99.90;;;;;;6119812;23;19915;-81
2024/03/09 02:13:15;;;;;;;;;;;4.30;99.90;;;;;;6139967;23;20269;-81
2024/03/09 02:15:49;;;;;;;;;;;4.40;99.90;;;;;;6116177;23;19932;-81
2024/03/09 02:18:31;;;;;;;;;;;;;;;;;;;;;
2024/03/09 02:21:08;;;;;;;;;;;4.30;99.90;;;;;;6143752;23;19918;-81
2024/03/09 02:24:13;;;;;;;;;;;4.30;99.90;;;;;;6120322;23;19912;-80
2024/03/09 02:27:04;;;;;;;;;;;4.20;99.90;;;;;;6140912;23;20217;-81
2024/03/09 02:29:39;;;;;;;;;;;4.20;99.90;;;;;;6139378;23;19919;-81
2024/03/09 02:32:49;;;;;;;;;;;4.20;99.90;;;;;;6167467;23;19935;-81
2024/03/09 02:35:23;;;;;;;;;;;4.20;99.90;;;;;;6159460;23;20222;-80
2024/03/09 02:37:51;;;;;;;;;;;4.00;99.90;;;;;;6140115;23;19939;-80
2024/03/09 02:40:25;;;;;;;;;;;4.00;99.90;;;;;;6138887;23;20301;-81
2024/03/09 02:43:07;;;;;;;;;;;4.00;99.90;;;;;;6213449;23;19908;-80
2024/03/09 02:45:53;;;;;;;;;;;3.90;99.90;;;;;;6149875;23;20600;-80
2024/03/09 02:48:29;;;;;;;;;;;3.90;99.90;;;;;;6155922;23;19916;-80
2024/03/09 02:51:19;;;;;;;;;;;3.80;99.90;;;;;;6220095;23;19940;-80
2024/03/09 02:54:05;;;;;;;;;;;3.70;99.90;;;;;;6195204;23;19939;-80
2024/03/09 02:56:51;;;;;;;;;;;3.60;99.90;;;;;;6168316;23;19912;-81
2024/03/09 02:59:23;;;;;;;;;;;3.60;99.90;;;;;;6159563;23;19911;-81
2024/03/09 03:03:45;;;;;;;;;;;3.70;99.90;;;;;;6196647;23;19916;-81
2024/03/09 03:05:08;;;;;;;;;;;3.50;99.90;;;;;;6198742;23;19912;-81
2024/03/09 03:07:37;;;;;;;;;;;3.50;99.90;;;;;;6220663;23;19907;-81
2024/03/09 03:10:12;;;;;;;;;;;3.50;99.90;;;;;;6170586;23;19912;-81
2024/03/09 03:12:45;;;;;;;;;;;3.60;99.90;;;;;;6198206;23;19919;-81
2024/03/09 03:15:19;;;;;;;;;;;3.60;99.90;;;;;;6199368;23;19908;-81
2024/03/09 03:18:07;;;;;;;;;;;3.60;99.90;;;;;;6197360;23;19923;-81
2024/03/09 03:20:44;;;;;;;;;;;3.70;99.90;;;;;;6201076;23;20321;-81
2024/03/09 03:23:20;;;;;;;;;;;;;;;;;;;;;
2024/03/09 03:25:56;;;;;;;;;;;3.60;99.90;;;;;;6201717;23;19987;-81
2024/03/09 03:28:44;;;;;;;;;;;3.60;99.90;;;;;;6206684;23;19939;-81
2024/03/09 03:31:18;;;;;;;;;;;3.60;99.90;;;;;;6197399;23;19919;-81
2024/03/09 03:33:53;;;;;;;;;;;3.60;99.90;;;;;;6196930;23;19907;-81
2024/03/09 03:36:52;;;;;;;;;;;3.60;99.90;;;;;;6199292;23;19908;-81
2024/03/09 03:39:37;;;;;;;;;;;;;;;;;;;;;
2024/03/09 03:42:21;;;;;;;;;;;3.50;99.90;;;;;;6218578;23;19916;-81
2024/03/09 03:45:07;;;;;;;;;;;3.40;99.90;;;;;;6171170;23;19915;-81
2024/03/09 03:47:41;;;;;;;;;;;3.50;99.90;;;;;;6197113;23;20282;-81
2024/03/09 03:50:08;;;;;;;;;;;3.50;99.90;;;;;;6193591;23;20283;-81
2024/03/09 03:52:53;;;;;;;;;;;3.40;99.90;;;;;;6169242;23;19914;-81
2024/03/09 03:58:54;;;;;;;;;;;3.50;99.90;;;;;;6223701;23;19923;-81
2024/03/09 04:01:57;;;;;;;;;;;;;;;;;;;;;
2024/03/09 04:07:57;;;;;;;;;;;3.40;99.90;;;;;;6200336;23;20459;-81
2024/03/09 04:10:34;;;;;;;;;;;3.40;99.90;;;;;;6196684;23;19978;-81
2024/03/09 04:13:24;;;;;;;;;;;3.40;99.90;;;;;;6192099;23;19908;-81
2024/03/09 04:16:27;;;;;;;;;;;3.40;99.90;;;;;;6182972;23;20324;-81
2024/03/09 04:19:02;;;;;;;;;;;3.30;99.90;;;;;;6194215;23;20318;-81
2024/03/09 04:21:32;;;;;;;;;;;3.30;99.90;;;;;;6193328;23;19935;-81
2024/03/09 04:24:06;;;;;;;;;;;3.20;99.90;;;;;;6217571;23;19919;-80
2024/03/09 04:26:36;;;;;;;;;;;3.20;99.90;;;;;;6168084;23;19915;-81
2024/03/09 04:29:18;;;;;;;;;;;3.20;99.90;;;;;;6195194;23;19934;-81
2024/03/09 04:31:54;;;;;;;;;;;3.20;99.90;;;;;;6193762;23;19919;-81
2024/03/09 04:34:26;;;;;;;;;;;3.20;99.90;;;;;;6193335;23;19908;-81
2024/03/09 04:36:56;;;;;;;;;;;3.00;99.90;;;;;;6193882;23;20213;-81
2024/03/09 04:42:19;;;;;;;;;;;3.10;99.90;;;;;;6198347;23;19908;-81
2024/03/09 04:44:51;;;;;;;;;;;3.10;99.90;;;;;;6170746;23;19916;-81
2024/03/09 04:47:34;;;;;;;;;;;;;;;;;;;;;
2024/03/09 04:50:24;;;;;;;;;;;3.10;99.90;;;;;;6198816;23;19916;-81
2024/03/09 04:52:58;;;;;;;;;;;3.10;99.90;;;;;;6200838;23;19939;-81
2024/03/09 05:03:21;;;;;;;;;;;3.10;99.90;;;;;;6160443;23;19927;-80
2024/03/09 05:06:08;;;;;;;;;;;3.10;99.90;;;;;;6109957;23;20615;-80
2024/03/09 05:08:54;;;;;;;;;;;3.10;99.90;;;;;;6115688;23;19972;-81
2024/03/09 05:11:23;;;;;;;;;;;3.00;99.90;;;;;;6111576;23;19919;-81
2024/03/09 05:13:53;;;;;;;;;;;3.00;99.90;;;;;;6108772;23;19908;-80
2024/03/09 05:16:28;;;;;;;;;;;3.00;99.90;;;;;;6134722;23;19909;-80
2024/03/09 05:18:53;;;;;;;;;;;3.00;99.90;;;;;;6133035;23;20094;-81
2024/03/09 05:21:23;;;;;;;;;;;3.00;99.90;;;;;;6109294;23;19908;-80
2024/03/09 05:23:48;;;;;;;;;;;3.00;99.90;;;;;;6134514;23;19919;-80
2024/03/09 05:26:29;;;;;;;;;;;;;;;;;;;;;
2024/03/09 05:28:56;;;;;;;;;;;3.00;99.90;;;;;;6137079;23;19913;-80
2024/03/09 05:31:30;;;;;;;;;;;2.90;99.90;;;;;;6114619;23;19908;-80
2024/03/09 05:34:05;;;;;;;;;;;2.90;99.90;;;;;;6114446;23;19912;-81
2024/03/09 05:36:40;;;;;;;;;;;2.90;99.90;;;;;;6112869;23;19972;-81
2024/03/09 05:39:05;;;;;;;;;;;2.90;99.90;;;;;;6110660;23;19916;-81
2024/03/09 05:41:46;;;;;;;;;;;;;;;;;;;;;
2024/03/09 05:44:12;;;;;;;;;;;3.00;99.90;;;;;;6112307;23;19916;-80
2024/03/09 05:46:40;;;;;;;;;;;2.90;99.90;;;;;;6109365;23;20250;-80
2024/03/09 05:49:18;;;;;;;;;;;2.90;99.90;;;;;;6111884;23;19937;-80
2024/03/09 05:52:05;;;;;;;;;;;2.80;99.90;;;;;;6109660;23;19975;-80
2024/03/09 05:54:38;;;;;;;;;;;2.90;99.90;;;;;;6099283;23;19908;-80
2024/03/09 05:57:09;;;;;;;;;;;2.80;99.90;;;;;;6110203;23;19947;-80
2024/03/09 05:59:35;;;;;;;;;;;2.80;99.90;;;;;;6085841;23;20333;-80
2024/03/09 06:02:02;;;;;;;;;;;2.90;99.90;;;;;;6121630;23;19916;-80
2024/03/09 06:04:32;;;;;;;;;;;2.80;99.90;;;;;;6058058;23;19936;-80
2024/03/09 06:06:57;;;;;;;;;;;2.80;99.90;;;;;;6058738;23;19908;-81
2024/03/09 06:09:26;;;;;;;;;;;2.80;99.90;;;;;;6083464;23;20101;-81
2024/03/09 06:11:54;;;;;;;;;;;2.80;99.90;;;;;;6118051;23;19927;-81
2024/03/09 06:14:24;;;;;;;;;;;2.90;99.90;;;;;;6065404;23;19920;-81
2024/03/09 06:16:51;;;;;;;;;;;2.80;99.90;;;;;;6099210;23;19916;-82
2024/03/09 06:19:18;;;;;;;;;;;2.80;99.90;;;;;;6097719;23;19941;-82
2024/03/09 06:21:44;;;;;;;;;;;2.90;99.90;;;;;;6070322;23;19924;-82
2024/03/09 06:24:11;;;;;;;;;;;2.90;99.90;;;;;;6099813;23;19913;-83
2024/03/09 06:26:43;;;;;;;;;;;2.90;99.90;;;;;;6096726;23;20144;-82
2024/03/09 06:29:18;;;;;;;;;;;2.90;99.90;;;;;;6067383;23;19908;-81
2024/03/09 06:32:11;;;;;;;;;;;2.90;99.90;;;;;;6057761;23;19917;-81
2024/03/09 06:34:43;;;;;;;;;;;3.00;99.90;;;;;;6109567;23;19953;-81
2024/03/09 06:37:21;;;;;;;;;;;3.00;99.90;;;;;;6089799;23;19928;-81
2024/03/09 06:40:08;;;;;;;;;;;3.00;99.90;;;;;;6066032;23;19944;-81
2024/03/09 06:42:39;;;;;;;;;;;2.90;99.90;;;;;;6105146;23;19916;-81
2024/03/09 06:45:11;;;;;;;;;;;3.10;99.90;;;;;;6055995;23;20350;-81
2024/03/09 06:47:39;;;;;;;;;;;3.10;99.90;;;;;;6055879;23;20223;-81
2024/03/09 06:50:05;;;;;;;;;;;3.10;99.90;;;;;;6103933;23;19913;-81
2024/03/09 06:52:33;;;;;;;;;;;3.10;99.90;;;;;;6078542;23;19923;-81
2024/03/09 06:54:59;;;;;;;;;;;3.20;99.90;;;;;;6058123;23;19912;-82
2024/03/09 06:57:25;;;;;;;;;;;3.20;99.90;;;;;;6062816;23;19960;-82
2024/03/09 06:59:51;;;;;;;;;;;3.20;99.90;;;;;;6086802;23;19985;-81
2024/03/09 07:02:18;;;;;;;;;;;3.30;99.90;;;;;;6083203;23;19917;-81
2024/03/09 07:04:50;;;;;;;;;;;3.30;99.90;;;;;;6079681;23;19999;-81
2024/03/09 07:07:17;;;;;;;;;;;3.40;99.90;;;;;;6057651;23;19920;-79
2024/03/09 07:09:49;;;;;;;;;;;3.30;99.90;;;;;;6103509;23;19999;-81
2024/03/09 07:12:15;;;;;;;;;;;3.40;99.90;;;;;;6080460;23;19909;-81
2024/03/09 07:14:42;;;;;;;;;;;3.50;99.90;;;;;;6055333;23;19976;-81
2024/03/09 07:17:08;;;;;;;;;;;3.50;99.90;;;;;;6079679;23;20219;-81
2024/03/09 07:19:36;;;;;;;;;;;3.50;99.90;;;;;;6055388;23;19913;-81
2024/03/09 07:22:02;;;;;;;;;;;3.50;99.90;;;;;;6056031;23;19980;-81
2024/03/09 07:24:29;;;;;;;;;;;3.60;99.90;;;;;;6063563;23;20262;-80
2024/03/09 07:27:13;;;;;;;;;;;3.70;99.90;;;;;;6092903;23;19912;-80
2024/03/09 07:29:39;;;;;;;;;;;3.70;99.90;;;;;;6111836;23;19913;-81
2024/03/09 07:32:10;;;;;;;;;;;3.70;99.90;;;;;;6059250;23;19912;-81
2024/03/09 07:34:36;;;;;;;;;;;3.80;99.90;;;;;;6055469;23;20206;-78
2024/03/09 07:37:04;;;;;;;;;;;3.80;99.90;;;;;;6053498;23;19936;-79
2024/03/09 07:39:30;;;;;;;;;;;3.70;99.90;;;;;;6101216;23;19968;-79
2024/03/09 07:41:56;;;;;;;;;;;4.00;99.90;;;;;;6054325;23;19920;-78
2024/03/09 07:44:21;;;;;;;;;;;4.00;99.90;;;;;;6054251;23;19913;-81
2024/03/09 07:46:55;;;;;;;;;;;4.10;99.90;;;;;;6077536;23;19909;-79
2024/03/09 07:49:22;;;;;;;;;;;4.20;99.90;;;;;;6054921;23;19967;-78
2024/03/09 07:51:50;;;;;;;;;;;4.20;99.90;;;;;;6102312;23;20057;-79
2024/03/09 07:54:16;;;;;;;;;;;4.30;99.90;;;;;;6076757;23;19913;-78
2024/03/09 07:56:43;;;;;;;;;;;4.40;99.90;;;;;;6101429;23;20025;-79
2024/03/09 07:59:10;;;;;;;;;;;4.60;99.90;;;;;;6127973;23;19909;-78
2024/03/09 08:01:38;;;;;;;;;;;4.60;99.90;;;;;;6054277;23;19912;-79
2024/03/09 08:04:04;;;;;;;;;;;4.70;99.90;;;;;;6055046;23;19944;-79
2024/03/09 08:06:30;;;;;;;;;;;4.70;99.90;;;;;;6078471;23;19924;-79
2024/03/09 08:08:56;;;;;;;;;;;4.80;99.90;;;;;;6076742;23;19909;-80
2024/03/09 08:11:25;;;;;;;;;;;4.90;99.90;;;;;;6079140;23;19908;-80
2024/03/09 08:17:21;;;;;;;;;;;5.10;99.90;;;;;;6040387;23;20397;-80
2024/03/09 08:19:48;;;;;;;;;;;5.20;99.90;;;;;;5971115;23;19958;-79
2024/03/09 08:22:17;;;;;;;;;;;5.30;99.90;;;;;;6044111;23;20250;-80
2024/03/09 08:24:42;;;;;;;;;;;5.40;99.90;;;;;;6060620;23;19992;-80
2024/03/09 08:27:12;;;;;;;;;;;5.40;99.90;;;;;;6054620;23;20294;-78
2024/03/09 08:29:38;;;;;;;;;;;5.60;99.90;;;;;;6077837;23;19909;-78
2024/03/09 08:32:05;;;;;;;;;;;5.60;99.90;;;;;;6076935;23;20274;-79
2024/03/09 08:34:32;;;;;;;;;;;5.70;99.90;;;;;;6053421;23;19920;-79
2024/03/09 08:37:08;;;;;;;;;;;5.80;99.90;;;;;;6078281;23;19989;-78
2024/03/09 08:39:34;;;;;;;;;;;5.80;99.90;;;;;;6053171;23;19916;-78
2024/03/09 08:42:01;;;;;;;;;;;5.90;99.90;;;;;;6052985;23;19916;-79
2024/03/09 08:44:30;;;;;;;;;;;6.00;99.90;;;;;;6077194;23;19913;-78
2024/03/09 08:46:56;;;;;;;;;;;6.00;99.90;;;;;;6101790;23;19908;-79
2024/03/09 08:49:22;;;;;;;;;;;6.20;99.90;;;;;;6052458;23;19959;-78
2024/03/09 08:51:49;;;;;;;;;;;6.20;99.90;;;;;;6125033;23;19936;-78
2024/03/09 08:54:17;;;;;;;;;;;6.20;99.90;;;;;;6076590;23;19913;-79
2024/03/09 08:56:43;;;;;;;;;;;6.30;99.90;;;;;;6053349;23;19913;-78
2024/03/09 08:59:09;;;;;;;;;;;6.40;99.90;;;;;;6077562;23;19919;-78
2024/03/09 09:01:35;;;;;;;;;;;6.50;99.90;;;;;;6078899;23;19917;-78
2024/03/09 09:04:04;;;;;;;;;;;6.50;99.90;;;;;;6079774;23;19917;-79
2024/03/09 09:06:33;;;;;;;;;;;6.50;99.90;;;;;;6057926;23;19913;-80
2024/03/09 09:08:58;;;;;;;;;;;6.60;99.90;;;;;;6081813;23;19971;-80
2024/03/09 09:11:26;;;;;;;;;;;6.70;99.90;;;;;;6081599;23;19913;-80
2024/03/09 09:13:52;;;;;;;;;;;6.80;99.90;;;;;;6080668;23;19920;-79
2024/03/09 09:16:20;;;;;;;;;;;6.90;99.90;;;;;;6054969;23;19917;-80
2024/03/09 09:18:47;;;;;;;;;;;6.80;99.90;;;;;;6079034;23;19936;-80
2024/03/09 09:21:14;;;;;;;;;;;6.80;99.90;;;;;;6079550;23;19940;-80
2024/03/09 09:23:42;;;;;;;;;;;6.80;99.90;;;;;;6080177;23;19913;-79
2024/03/09 09:26:08;;;;;;;;;;;6.80;99.90;;;;;;6103762;23;20192;-80
2024/03/09 09:28:34;;;;;;;;;;;6.80;99.90;;;;;;6078905;23;19950;-80
2024/03/09 09:30:59;;;;;;;;;;;7.00;99.90;;;;;;6078878;23;19909;-79
2024/03/09 09:33:25;;;;;;;;;;;7.00;99.90;;;;;;6079421;23;19909;-79
2024/03/09 09:35:53;;;;;;;;;;;7.10;99.90;;;;;;6104058;23;20316;-79
2024/03/09 09:38:26;;;;;;;;;;;7.20;99.90;;;;;;6102832;23;19990;-79
2024/03/09 09:40:52;;;;;;;;;;;7.20;99.90;;;;;;6078915;23;19908;-77
2024/03/09 09:43:23;;;;;;;;;;;7.30;99.90;;;;;;6078937;23;19976;-78
2024/03/09 09:45:49;;;;;;;;;;;7.30;99.90;;;;;;6103726;23;19909;-78
2024/03/09 09:48:16;;;;;;;;;;;7.40;99.90;;;;;;6080063;23;19920;-77
2024/03/09 09:50:44;;;;;;;;;;;7.30;99.90;;;;;;6103579;23;20032;-79
2024/03/09 09:53:11;;;;;;;;;;;7.30;99.90;;;;;;6056645;23;19916;-79
2024/03/09 09:55:37;;;;;;;;;;;7.20;99.90;;;;;;6056620;23;20291;-79
2024/03/09 09:58:03;;;;;;;;;;;7.20;99.90;;;;;;6056536;23;19917;-79
2024/03/09 10:00:29;;;;;;;;;;;7.20;99.90;;;;;;6056822;23;19909;-79
2024/03/09 10:03:00;;;;;;;;;;;7.20;99.90;;;;;;6059001;23;20334;-79
2024/03/09 10:05:28;;;;;;;;;;;7.40;99.90;;;;;;6057180;23;19988;-79
2024/03/09 10:08:09;;;;;;;;;;;7.40;99.90;;;;;;6056098;23;20149;-80
2024/03/09 10:10:37;;;;;;;;;;;7.50;99.90;;;;;;6103737;23;19913;-79
2024/03/09 10:13:13;;;;;;;;;;;7.60;99.90;;;;;;6080118;23;19909;-79
2024/03/09 10:15:40;;;;;;;;;;;7.70;99.90;;;;;;6078515;23;19939;-79
2024/03/09 10:18:07;;;;;;;;;;;7.70;99.90;;;;;;6055331;23;19980;-79
2024/03/09 10:20:35;;;;;;;;;;;7.90;99.90;;;;;;6078805;23;19933;-79
2024/03/09 10:23:08;;;;;;;;;;;8.00;99.90;;;;;;6055535;23;19920;-79
2024/03/09 10:25:37;;;;;;;;;;;8.00;99.90;;;;;;6080691;23;20287;-79
2024/03/09 10:28:07;;;;;;;;;;;8.20;99.90;;;;;;6056085;23;19909;-79
2024/03/09 10:30:32;;;;;;;;;;;8.30;99.90;;;;;;6055856;23;19951;-79
2024/03/09 10:32:58;;;;;;;;;;;8.20;99.90;;;;;;6103447;23;19913;-79
2024/03/09 10:35:25;;;;;;;;;;;8.40;99.90;;;;;;6055353;23;19917;-79
2024/03/09 10:37:55;;;;;;;;;;;8.60;99.90;;;;;;6055994;23;19921;-79
2024/03/09 10:40:24;;;;;;;;;;;8.80;99.90;;;;;;6079869;23;19975;-79
2024/03/09 10:42:50;;;;;;;;;;;8.90;99.90;;;;;;6102443;23;19913;-79
2024/03/09 10:45:20;;;;;;;;;;;9.10;99.90;;;;;;6102936;23;19909;-79
2024/03/09 10:47:52;;;;;;;;;;;9.30;99.90;;;;;;6078935;23;19924;-79
2024/03/09 10:50:25;;;;;;;;;;;9.40;99.90;;;;;;6056414;23;19920;-79
2024/03/09 10:52:56;;;;;;;;;;;9.60;99.90;;;;;;6079331;23;19980;-79
2024/03/09 10:55:24;;;;;;;;;;;9.60;99.90;;;;;;6102705;23;19909;-79
2024/03/09 10:57:53;;;;;;;;;;;9.70;99.90;;;;;;6079650;23;19916;-79
2024/03/09 11:00:28;;;;;;;;;;;9.90;99.90;;;;;;6079497;23;19924;-79
2024/03/09 11:02:55;;;;;;;;;;;9.90;99.90;;;;;;6119539;23;19931;-79
2024/03/09 11:05:22;;;;;;;;;;;10.00;99.90;;;;;;6132360;23;19909;-79
2024/03/09 11:07:50;;;;;;;;;;;9.90;99.90;;;;;;6083409;23;19919;-79
2024/03/09 11:10:17;;;;;;;;;;;9.60;99.90;;;;;;6107620;23;19991;-80
2024/03/09 11:12:43;;;;;;;;;;;9.60;99.90;;;;;;6107968;23;19923;-79
2024/03/09 11:15:13;;;;;;;;;;;9.70;99.90;;;;;;6132015;23;19908;-79
2024/03/09 11:17:49;;;;;;;;;;;9.50;99.90;;;;;;6133396;23;19928;-79
2024/03/09 11:20:20;;;;;;;;;;;9.40;99.90;;;;;;6109307;23;19912;-79
2024/03/09 11:22:47;;;;;;;;;;;9.30;99.90;;;;;;6084726;23;19918;-79
2024/03/09 11:25:13;;;;;;;;;;;9.20;99.90;;;;;;6108616;23;19909;-80
2024/03/09 11:27:39;;;;;;;;;;;9.00;99.90;;;;;;6109695;23;19925;-79
2024/03/09 11:30:06;;;;;;;;;;;9.00;99.90;;;;;;6083101;23;19917;-79
2024/03/09 11:32:32;;;;;;;;;;;8.90;99.90;;;;;;6110112;23;19932;-80
2024/03/09 11:35:36;;;;;;;;;;;9.00;99.90;;;;;;6085530;23;19909;-80
2024/03/09 11:38:12;;;;;;;;;;;8.90;99.90;;;;;;6021117;23;19968;-80
2024/03/09 11:40:37;;;;;;;;;;;8.90;99.90;;;;;;6046288;23;19917;-79
2024/03/09 11:43:09;;;;;;;;;;;8.80;99.90;;;;;;6087493;23;20223;-79
2024/03/09 11:45:39;;;;;;;;;;;8.70;99.90;;;;;;6083165;23;19923;-80
2024/03/09 11:48:05;;;;;;;;;;;8.60;99.90;;;;;;6111195;23;19916;-79
2024/03/09 11:50:31;;;;;;;;;;;8.60;99.90;;;;;;6108450;23;19913;-80
2024/03/09 11:52:56;;;;;;;;;;;8.60;99.90;;;;;;6107477;23;19912;-79
2024/03/09 11:55:23;;;;;;;;;;;8.60;99.90;;;;;;6089933;23;19936;-80
2024/03/09 11:57:52;;;;;;;;;;;8.70;99.90;;;;;;6090123;23;19927;-80
2024/03/09 12:00:17;;;;;;;;;;;8.70;99.90;;;;;;6090538;23;19913;-80
2024/03/09 12:02:46;;;;;;;;;;;8.80;99.90;;;;;;6097400;23;19931;-80
2024/03/09 12:05:18;;;;;;;;;;;8.90;99.90;;;;;;6080154;23;20443;-80
2024/03/09 12:07:47;;;;;;;;;;;8.90;99.90;;;;;;6081661;23;19997;-80
2024/03/09 12:10:15;;;;;;;;;;;8.90;99.90;;;;;;6054299;23;19909;-80
2024/03/09 12:12:42;;;;;;;;;;;9.00;99.90;;;;;;6081962;23;19909;-80
2024/03/09 12:15:10;;;;;;;;;;;9.10;99.90;;;;;;6057437;23;19916;-80
2024/03/09 12:17:39;;;;;;;;;;;9.10;99.90;;;;;;6056582;23;20234;-80
2024/03/09 12:20:06;;;;;;;;;;;9.10;99.90;;;;;;6079392;23;19916;-80
2024/03/09 12:22:32;;;;;;;;;;;9.40;99.90;;;;;;6055425;23;19977;-79
2024/03/09 12:24:59;;;;;;;;;;;9.50;99.90;;;;;;6054599;23;19984;-79
2024/03/09 12:27:24;;;;;;;;;;;9.50;99.90;;;;;;6077775;23;19992;-80
2024/03/09 12:29:50;;;;;;;;;;;9.40;99.90;;;;;;6053595;23;20358;-79
2024/03/09 12:32:19;;;;;;;;;;;9.50;99.90;;;;;;6078056;23;19913;-80
2024/03/09 12:34:45;;;;;;;;;;;9.50;99.90;;;;;;6103419;23;20233;-80
2024/03/09 12:37:11;;;;;;;;;;;9.50;99.90;;;;;;6054526;23;19948;-80
2024/03/09 12:39:38;;;;;;;;;;;9.60;99.90;;;;;;6078255;23;20318;-80
2024/03/09 12:42:04;;;;;;;;;;;9.80;99.90;;;;;;6077376;23;19932;-80
2024/03/09 12:44:41;;;;;;;;;;;9.80;99.90;;;;;;6102879;23;20291;-79
2024/03/09 12:47:13;;;;;;;;;;;9.90;99.90;;;;;;6055262;23;19913;-79
2024/03/09 12:49:43;;;;;;;;;;;10.10;99.90;;;;;;6055005;23;19909;-79
2024/03/09 12:52:10;;;;;;;;;;;10.50;99.90;;;;;;6054055;23;19916;-79
2024/03/09 12:54:43;;;;;;;;;;;10.90;99.90;;;;;;6101991;23;19912;-79
2024/03/09 12:57:17;;;;;;;;;;;11.10;99.90;;;;;;6055967;23;19984;-79
2024/03/09 12:59:43;;;;;;;;;;;11.60;99.90;;;;;;6078653;23;19917;-79
2024/03/09 13:02:09;;;;;;;;;;;11.60;99.90;;;;;;6081213;23;20215;-79
2024/03/09 13:04:37;;;;;;;;;;;12.00;99.90;;;;;;6102516;23;20206;-79
2024/03/09 13:07:05;;;;;;;;;;;12.30;99.90;;;;;;6126181;23;19920;-79
2024/03/09 13:09:31;;;;;;;;;;;12.00;99.90;;;;;;6102083;23;20396;-78
2024/03/09 13:11:57;;;;;;;;;;;11.80;99.90;;;;;;6101939;23;19909;-78
2024/03/09 13:14:23;;;;;;;;;;;12.00;99.90;;;;;;6125725;23;19927;-79
2024/03/09 13:16:49;;;;;;;;;;;12.20;99.90;;;;;;6101029;23;19913;-79
2024/03/09 13:19:17;;;;;;;;;;;12.50;99.90;;;;;;6077430;23;19912;-78
2024/03/09 13:21:43;;;;;;;;;;;12.70;99.90;;;;;;6077308;23;19935;-78
2024/03/09 13:24:16;;;;;;;;;;;13.00;99.90;;;;;;6125655;23;19909;-78
2024/03/09 13:26:51;;;;;;;;;;;13.00;99.90;;;;;;6111549;23;19909;-80
2024/03/09 13:29:27;;;;;;;;;;;13.00;99.90;;;;;;6103685;23;19924;-79
2024/03/09 13:31:53;;;;;;;;;;;13.40;99.90;;;;;;6078310;23;19984;-79
2024/03/09 13:34:19;;;;;;;;;;;13.60;99.90;;;;;;6101373;23;19913;-79
2024/03/09 13:36:46;;;;;;;;;;;13.90;99.90;;;;;;6101706;23;19917;-79
2024/03/09 13:39:17;;;;;;;;;;;14.30;99.90;;;;;;6102288;23;20218;-79
2024/03/09 13:41:46;;;;;;;;;;;14.70;99.90;;;;;;6104651;23;20008;-79
2024/03/09 13:44:12;;;;;;;;;;;15.10;99.90;;;;;;6083490;23;19912;-80
2024/03/09 13:46:38;;;;;;;;;;;15.50;99.50;;;;;;6134174;23;19984;-80
2024/03/09 13:49:10;;;;;;;;;;;15.70;98.80;;;;;;6081006;23;20295;-77
2024/03/09 13:51:36;;;;;;;;;;;16.00;97.80;;;;;;6127418;23;19924;-78
2024/03/09 13:54:02;;;;;;;;;;;16.10;96.20;;;;;;6102954;23;19917;-77
2024/03/09 13:56:28;;;;;;;;;;;16.10;97.00;;;;;;6079157;23;20408;-77
2024/03/09 13:58:54;;;;;;;;;;;16.10;96.40;;;;;;6104966;23;19932;-78
2024/03/09 14:01:20;;;;;;;;;;;16.00;96.50;;;;;;6079239;23;19980;-76
2024/03/09 14:03:46;;;;;;;;;;;16.10;95.90;;;;;;6081530;23;20322;-76
2024/03/09 14:06:14;;;;;;;;;;;16.10;96.00;;;;;;6077253;23;19919;-76
2024/03/09 14:08:43;;;;;;;;;;;16.10;97.10;;;;;;6080123;23;19919;-78
2024/03/09 14:11:09;;;;;;;;;;;16.10;95.40;;;;;;6102642;23;19913;-78
2024/03/09 14:13:36;;;;;;;;;;;16.40;96.40;;;;;;6055004;23;19912;-78
2024/03/09 14:16:07;;;;;;;;;;;16.80;95.20;;;;;;6078537;23;20291;-77
2024/03/09 14:18:36;;;;;;;;;;;17.00;93.90;;;;;;6055866;23;20300;-78
2024/03/09 14:21:13;;;;;;;;;;;17.20;93.80;;;;;;6079239;23;19920;-77
2024/03/09 14:23:39;;;;;;;;;;;16.90;92.60;;;;;;6080635;23;19909;-76
2024/03/09 14:26:11;;;;;;;;;;;16.80;93.40;;;;;;6101787;23;19928;-76
2024/03/09 14:28:38;;;;;;;;;;;17.10;93.60;;;;;;6080936;23;20335;-78
2024/03/09 14:31:03;;;;;;;;;;;17.00;92.50;;;;;;6103083;23;19913;-79
2024/03/09 14:33:29;;;;;;;;;;;16.70;93.00;;;;;;6079057;23;19936;-77
2024/03/09 14:35:56;;;;;;;;;;;16.20;93.10;;;;;;6077790;23;20322;-78
2024/03/09 14:38:22;;;;;;;;;;;16.10;92.70;;;;;;6102031;23;19980;-77
2024/03/09 14:40:51;;;;;;;;;;;16.00;93.20;;;;;;6102320;23;19913;-78
2024/03/09 14:43:21;;;;;;;;;;;16.00;92.30;;;;;;6102887;23;19923;-76
2024/03/09 14:45:48;;;;;;;;;;;15.60;92.30;;;;;;6103289;23;19924;-77
2024/03/09 14:48:15;;;;;;;;;;;15.80;93.70;;;;;;6078655;23;19912;-76
2024/03/09 14:50:41;;;;;;;;;;;15.80;92.60;;;;;;6078499;23;19972;-78
2024/03/09 14:53:17;;;;;;;;;;;15.80;92.20;;;;;;6077763;23;19975;-78
2024/03/09 14:55:46;;;;;;;;;;;15.70;92.60;;;;;;6105142;23;20402;-77
2024/03/09 14:58:12;;;;;;;;;;;16.00;93.70;;;;;;6055734;23;19919;-78
2024/03/09 15:03:32;;;;;;;;;;;16.20;93.00;;;;;;6102636;23;19976;-79
2024/03/09 15:05:58;;;;;;;;;;;16.30;93.20;;;;;;6105196;23;19919;-77
2024/03/09 15:08:23;;;;;;;;;;;16.40;92.80;;;;;;6054065;23;19917;-77
2024/03/09 15:10:49;;;;;;;;;;;16.00;92.70;;;;;;6078949;23;19913;-76
2024/03/09 15:13:21;;;;;;;;;;;16.00;93.30;;;;;;6128303;23;19923;-78
2024/03/09 15:15:47;;;;;;;;;;;15.90;92.90;;;;;;6079336;23;19984;-77
2024/03/09 15:18:12;;;;;;;;;;;15.70;93.10;;;;;;6054228;23;19917;-78
2024/03/09 15:20:41;;;;;;;;;;;15.50;93.20;;;;;;6102127;23;19924;-77
2024/03/09 15:23:10;;;;;;;;;;;15.50;93.80;;;;;;6102102;23;19944;-77
2024/03/09 15:25:40;;;;;;;;;;;15.40;93.70;;;;;;6078225;23;20295;-77
2024/03/09 15:28:06;;;;;;;;;;;15.30;93.40;;;;;;6079003;23;19913;-77
2024/03/09 15:30:32;;;;;;;;;;;15.20;93.40;;;;;;6078823;23;19917;-80
2024/03/09 15:32:59;;;;;;;;;;;15.20;94.30;;;;;;6079237;23;19978;-81
2024/03/09 15:35:25;;;;;;;;;;;15.10;93.70;;;;;;6055726;23;19913;-80